Time;durP1;ratioP1;P1;durP2;ratioP2;P2;SDS_P1;SDS_P2;PMS_P1;PMS_P2;Temp;Humidity;BMP_temperature;BMP_pressure;BME280_temperature;BME280_humidity;BME280_pressure;Samples;Min_cycle;Max_cycle;Signal;HPM_P1;HPM_P2
2021/12/11 00:01:49;;;;;;;8.32;5.60;;;;;;;-7.41;73.59;102471.97;5054807;28;20044;-64
2021/12/11 00:04:20;;;;;;;10.00;7.22;;;;;;;-7.44;73.82;102459.03;5055023;28;20408;-65
2021/12/11 00:06:51;;;;;;;7.40;5.80;;;;;;;-7.33;73.99;102477.09;5053864;28;20037;-65
2021/12/11 00:09:19;;;;;;;7.30;4.90;;;;;;;-7.34;73.63;102468.47;5055125;28;20171;-64
2021/12/11 00:11:50;;;;;;;6.90;5.72;;;;;;;-7.24;73.49;102479.63;5054629;28;20040;-64
2021/12/11 00:14:17;;;;;;;9.55;6.10;;;;;;;-7.33;74.13;102459.84;5053702;28;20127;-66
2021/12/11 00:16:42;;;;;;;6.80;5.97;;;;;;;-7.35;73.78;102464.16;5053525;28;20120;-67
2021/12/11 00:19:13;;;;;;;8.97;6.23;;;;;;;-7.21;74.20;102475.31;5054838;28;20543;-64
2021/12/11 00:21:40;;;;;;;6.88;5.50;;;;;;;-7.21;73.71;102470.16;5075782;28;20059;-64
2021/12/11 00:24:08;;;;;;;6.78;5.18;;;;;;;-7.19;74.43;102473.59;5094671;28;20177;-66
2021/12/11 00:26:36;;;;;;;8.02;5.43;;;;;;;-7.24;74.31;102459.78;5094988;28;20044;-65
2021/12/11 00:29:04;;;;;;;6.10;5.25;;;;;;;-7.24;74.43;102459.78;5094902;28;20491;-64
2021/12/11 00:31:34;;;;;;;8.60;6.75;;;;;;;-7.15;74.15;102466.66;5095106;28;20402;-63
2021/12/11 00:34:00;;;;;;;7.40;6.57;;;;;;;-7.16;74.32;102462.34;5094774;28;20036;-65
2021/12/11 00:36:32;;;;;;;7.03;6.10;;;;;;;-7.15;74.55;102448.53;5094512;28;20130;-64
2021/12/11 00:39:18;;;;;;;8.25;6.70;;;;;;;-7.07;73.67;102462.28;5094654;28;20036;-64
2021/12/11 00:41:50;;;;;;;8.13;5.38;;;;;;;-7.14;73.69;102463.19;5094722;28;20406;-64
2021/12/11 00:44:15;;;;;;;7.00;5.43;;;;;;;-7.20;74.61;102451.16;5094354;28;20071;-65
2021/12/11 00:46:41;;;;;;;9.00;5.43;;;;;;;-7.68;74.55;102366.00;5094487;28;20121;-64
2021/12/11 00:49:13;;;;;;;8.17;5.97;;;;;;;-7.13;74.33;102456.28;5094350;28;20118;-65
2021/12/11 00:51:39;;;;;;;8.07;6.35;;;;;;;-7.09;74.67;102473.53;5094281;28;20474;-65
2021/12/11 00:54:05;;;;;;;7.63;6.10;;;;;;;-7.08;74.04;102470.06;5093378;28;20089;-64
2021/12/11 00:56:37;;;;;;;7.70;6.90;;;;;;;-7.04;74.67;102464.84;5094223;28;20065;-64
2021/12/11 00:59:10;;;;;;;7.25;5.78;;;;;;;-7.04;74.73;102466.59;5094190;28;20024;-66
2021/12/11 01:01:44;;;;;;;10.10;6.93;;;;;;;-7.32;74.93;102419.28;5093877;28;20055;-64
2021/12/11 01:04:16;;;;;;;7.07;5.47;;;;;;;-7.03;74.64;102465.72;5093971;28;20540;-64
2021/12/11 01:06:48;;;;;;;8.35;5.57;;;;;;;-6.94;74.65;102452.69;5094111;28;20048;-68
2021/12/11 01:09:24;;;;;;;8.02;6.05;;;;;;;-7.00;74.04;102458.78;5094096;28;20410;-65
2021/12/11 01:11:59;;;;;;;8.50;6.03;;;;;;;-6.88;73.96;102463.91;5094173;28;20047;-65
2021/12/11 01:14:37;;;;;;;8.90;5.72;;;;;;;-6.98;73.80;102436.31;5094802;28;20028;-66
2021/12/11 01:17:19;;;;;;;11.98;6.40;;;;;;;-6.90;74.20;102436.28;5093943;28;20039;-64
2021/12/11 01:19:47;;;;;;;10.32;6.43;;;;;;;-6.79;73.71;102457.78;5075769;28;20035;-65
2021/12/11 01:22:32;;;;;;;5.75;5.18;;;;;;;-6.88;74.03;102442.31;5093369;28;20150;-66
2021/12/11 01:25:00;;;;;;;8.23;4.90;;;;;;;-6.89;73.57;102450.97;5093724;28;20091;-64
2021/12/11 01:27:27;;;;;;;6.22;5.63;;;;;;;-6.81;73.36;102437.94;5093675;28;20040;-65
2021/12/11 01:29:56;;;;;;;7.85;5.43;;;;;;;-6.76;73.78;102452.59;5093657;28;20050;-63
2021/12/11 01:32:24;;;;;;;7.03;5.43;;;;;;;-6.77;73.29;102461.22;5093676;28;20132;-65
2021/12/11 01:34:50;;;;;;;7.85;6.05;;;;;;;-6.89;73.35;102444.06;5093324;28;20513;-64
2021/12/11 01:37:17;;;;;;;9.80;6.13;;;;;;;-6.93;74.16;102454.44;5093698;28;20051;-64
2021/12/11 01:39:43;;;;;;;8.43;5.75;;;;;;;-6.94;74.64;102432.88;5093134;28;20391;-66
2021/12/11 01:42:13;;;;;;;10.27;6.15;;;;;;;-6.87;74.32;102437.13;5093321;28;20040;-63
2021/12/11 01:44:42;;;;;;;6.18;5.57;;;;;;;-6.85;74.95;102424.16;5093553;28;20097;-64
2021/12/11 01:47:14;;;;;;;7.15;5.07;;;;;;;-6.85;74.48;102437.13;5093230;28;20490;-63
2021/12/11 01:49:43;;;;;;;7.05;6.35;;;;;;;-6.83;74.95;102440.56;5092855;28;20032;-64
2021/12/11 01:52:13;;;;;;;;;;;;;;;-6.76;74.58;102431.84;5093230;28;20487;-65
2021/12/11 01:54:44;;;;;;;8.50;5.53;;;;;;;-6.78;74.67;102432.75;5074595;28;19923;-64
2021/12/11 01:57:21;;;;;;;7.20;5.68;;;;;;;-6.84;74.54;102425.88;5093126;28;20043;-65
2021/12/11 01:59:53;;;;;;;8.75;6.32;;;;;;;-6.84;74.33;102428.47;5093080;28;20036;-64
2021/12/11 02:02:42;;;;;;;7.72;6.13;;;;;;;-6.77;74.43;102444.81;5092932;28;20044;-64
2021/12/11 02:05:08;;;;;;;;;;;;;;;-6.76;74.90;102442.22;5092513;28;20040;-63
2021/12/11 02:07:45;;;;;;;7.72;5.38;;;;;;;-6.83;74.26;102435.38;5092804;28;19920;-66
2021/12/11 02:10:27;;;;;;;6.50;5.32;;;;;;;-6.85;74.82;102431.06;5074926;28;20089;-64
2021/12/11 02:12:55;;;;;;;8.23;6.38;;;;;;;-6.84;74.43;102443.16;5093072;28;20039;-65
2021/12/11 02:15:29;;;;;;;6.32;5.10;;;;;;;-7.10;74.65;102388.94;5092769;28;20043;-65
2021/12/11 02:18:17;;;;;;;5.50;5.00;;;;;;;-6.78;74.42;102431.00;5093015;28;20028;-65
2021/12/11 02:20:51;;;;;;;5.57;5.05;;;;;;;-6.85;74.16;102436.25;5092472;28;20056;-65
2021/12/11 02:23:19;;;;;;;8.07;5.72;;;;;;;-6.88;74.49;102429.38;5092376;28;20086;-65
2021/12/11 02:25:48;;;;;;;6.72;5.75;;;;;;;-6.93;74.29;102431.13;5092311;28;20155;-64
2021/12/11 02:28:34;;;;;;;6.82;5.70;;;;;;;-6.90;74.21;102433.72;5092248;28;20044;-63
2021/12/11 02:31:15;;;;;;;5.25;4.30;;;;;;;-6.96;74.25;102423.38;5092401;28;20058;-65
2021/12/11 02:33:56;;;;;;;6.70;5.97;;;;;;;-6.89;74.51;102432.84;5092364;28;20146;-67
2021/12/11 02:36:32;;;;;;;6.68;4.68;;;;;;;-6.92;73.99;102420.75;5092228;28;20043;-62
2021/12/11 02:39:12;;;;;;;6.07;5.00;;;;;;;-6.89;73.63;102431.09;5073910;28;20072;-63
2021/12/11 02:41:49;;;;;;;6.18;5.05;;;;;;;-6.84;73.24;102441.44;5091953;28;20036;-62
2021/12/11 02:44:24;;;;;;;6.75;4.88;;;;;;;-6.85;73.32;102442.28;5092338;28;20040;-65
2021/12/11 02:47:08;;;;;;;7.03;5.38;;;;;;;-6.89;72.85;102445.78;5092567;28;20053;-66
2021/12/11 02:49:40;;;;;;;6.13;4.78;;;;;;;-6.98;72.75;102420.78;5092575;28;20046;-66
2021/12/11 02:52:26;;;;;;;5.78;5.05;;;;;;;-7.13;72.47;102399.34;5092229;28;20038;-64
2021/12/11 02:55:02;;;;;;;6.20;4.40;;;;;;;-7.00;72.13;102425.13;5092397;28;20474;-63
2021/12/11 02:57:36;;;;;;;6.93;4.65;;;;;;;-6.94;71.46;102421.63;5092657;28;20086;-66
2021/12/11 03:00:34;;;;;;;7.05;4.82;;;;;;;-6.97;70.73;102416.47;5092110;28;20047;-63
2021/12/11 03:03:06;;;;;;;8.97;5.00;;;;;;;-6.94;70.87;102412.16;5073444;28;20048;-66
2021/12/11 03:05:44;;;;;;;6.38;4.82;;;;;;;-6.92;70.49;102404.38;5092264;28;20047;-63
2021/12/11 03:08:15;;;;;;;5.18;4.53;;;;;;;-6.84;70.88;102412.06;5091793;28;20052;-65
2021/12/11 03:10:44;;;;;;;5.65;4.57;;;;;;;-6.78;70.70;102418.06;5091879;28;20032;-63
2021/12/11 03:13:11;;;;;;;5.07;4.23;;;;;;;-6.89;70.32;102405.19;5091888;28;20039;-66
2021/12/11 03:15:37;;;;;;;5.68;4.07;;;;;;;-6.80;70.76;102399.06;5091944;28;20265;-64
2021/12/11 03:18:05;;;;;;;6.70;4.57;;;;;;;-6.94;69.98;102386.25;5094113;28;20446;-64
2021/12/11 03:20:33;;;;;;;4.93;4.45;;;;;;;-6.89;70.33;102400.03;5095872;28;20173;-67
2021/12/11 03:22:59;;;;;;;6.00;4.03;;;;;;;-6.94;70.60;102396.59;5095862;28;20071;-64
2021/12/11 03:25:28;;;;;;;5.03;4.25;;;;;;;-6.84;69.92;102415.53;5095487;28;20040;-66
2021/12/11 03:27:55;;;;;;;8.03;5.63;;;;;;;-6.79;70.31;102418.94;5077618;28;20472;-68
2021/12/11 03:30:25;;;;;;;6.72;4.93;;;;;;;-6.88;69.99;102403.47;5096040;28;20491;-64
2021/12/11 03:32:54;;;;;;;5.45;4.28;;;;;;;-6.83;68.70;102401.69;5095970;28;20513;-66
2021/12/11 03:35:20;;;;;;;7.45;4.93;;;;;;;-6.74;68.90;102409.38;5095499;28;20036;-65
2021/12/11 03:37:46;;;;;;;5.22;4.60;;;;;;;-6.79;68.24;102410.31;5095568;28;20043;-65
2021/12/11 03:40:14;;;;;;;6.47;4.57;;;;;;;-6.98;68.09;102388.84;5077757;28;20040;-66
2021/12/11 03:42:42;;;;;;;5.22;4.65;;;;;;;-6.85;69.52;102405.16;5095792;28;20085;-65
2021/12/11 03:45:16;;;;;;;5.05;4.55;;;;;;;-6.77;69.28;102399.06;5095607;28;20062;-64
2021/12/11 03:47:48;;;;;;;5.05;4.03;;;;;;;-6.85;68.27;102395.66;5095482;28;20071;-65
2021/12/11 03:50:16;;;;;;;5.25;4.20;;;;;;;-7.53;68.29;102296.06;5095407;28;20064;-66
2021/12/11 03:52:45;;;;;;;6.47;4.10;;;;;;;-7.01;68.41;102394.06;5095421;28;20135;-64
2021/12/11 03:55:15;;;;;;;4.85;4.18;;;;;;;-6.96;68.68;102392.28;5095505;28;20094;-64
2021/12/11 03:57:42;;;;;;;5.88;5.28;;;;;;;-6.85;69.53;102410.34;5095048;28;20118;-66
2021/12/11 04:00:19;;;;;;;6.35;5.20;;;;;;;-6.79;68.88;102408.56;5095140;28;20060;-65
2021/12/11 04:02:45;;;;;;;5.45;4.15;;;;;;;-7.07;68.40;102347.50;5094928;28;20046;-65
2021/12/11 04:05:11;;;;;;;6.25;4.40;;;;;;;-6.92;68.46;102389.69;5094884;28;20036;-66
2021/12/11 04:07:43;;;;;;;5.45;4.55;;;;;;;-7.25;67.98;102340.72;5076903;28;20077;-65
2021/12/11 04:10:19;;;;;;;5.45;4.38;;;;;;;-6.87;68.68;102397.41;5095100;28;20048;-64
2021/12/11 04:12:48;;;;;;;4.85;4.32;;;;;;;-6.90;68.83;102387.09;5076738;28;20035;-63
2021/12/11 04:15:13;;;;;;;;;;;;;;;-6.89;68.80;102392.25;5095178;28;20051;-65
2021/12/11 04:17:39;;;;;;;5.13;4.67;;;;;;;-6.92;69.43;102394.00;5076632;28;20014;-66
2021/12/11 04:20:11;;;;;;;7.33;6.10;;;;;;;-6.91;69.10;102394.00;5094867;28;20074;-64
2021/12/11 04:22:38;;;;;;;7.20;5.15;;;;;;;-6.96;69.18;102379.34;5094824;28;20087;-64
2021/12/11 04:25:06;;;;;;;5.88;4.82;;;;;;;-6.94;68.90;102375.00;5094596;28;20135;-63
2021/12/11 04:27:32;;;;;;;6.07;4.45;;;;;;;-6.98;69.17;102363.81;5095156;28;20039;-65
2021/12/11 04:29:58;;;;;;;6.90;4.50;;;;;;;-6.95;69.56;102373.28;5094771;28;20036;-64
2021/12/11 04:32:28;;;;;;;6.13;4.77;;;;;;;-6.96;70.14;102356.03;5095317;28;20462;-67
2021/12/11 04:34:54;;;;;;;5.43;4.45;;;;;;;-6.89;69.45;102360.31;5076510;28;20036;-63
2021/12/11 04:37:24;;;;;;;6.00;4.83;;;;;;;-6.93;69.61;102348.25;5094462;28;20085;-64
2021/12/11 04:39:58;;;;;;;7.60;5.07;;;;;;;-6.96;70.02;102350.84;5094562;28;20486;-63
2021/12/11 04:42:39;;;;;;;5.28;4.10;;;;;;;-6.85;70.11;102359.41;5094221;28;20494;-71
2021/12/11 04:45:13;;;;;;;4.78;4.28;;;;;;;-6.96;69.54;102341.34;5094811;28;20032;-70
2021/12/11 04:47:46;;;;;;;5.25;4.75;;;;;;;-6.85;69.43;102359.41;5094816;28;20036;-71
2021/12/11 04:50:29;;;;;;;6.25;5.18;;;;;;;-6.86;70.31;102357.69;5095185;28;20488;-70
2021/12/11 04:52:55;;;;;;;4.63;4.22;;;;;;;-6.90;70.58;102349.09;5094745;28;20143;-69
2021/12/11 04:55:37;;;;;;;10.30;6.63;;;;;;;-6.97;70.49;102333.59;5076820;28;20032;-72
2021/12/11 05:11:43;;;;;;;4.97;4.47;;;;;;;-6.87;70.77;102340.44;5093544;28;20040;-65
2021/12/11 05:14:12;;;;;;;6.57;4.80;;;;;;;-6.86;69.97;102342.16;5093810;28;20437;-63
2021/12/11 05:16:38;;;;;;;9.13;4.97;;;;;;;-6.94;70.80;102325.78;5093789;28;20039;-65
2021/12/11 05:19:04;;;;;;;5.05;4.35;;;;;;;-6.98;70.81;102331.88;5075482;28;20059;-65
2021/12/11 05:21:31;;;;;;;5.60;4.17;;;;;;;-6.88;70.97;102336.13;5093093;28;20504;-64
2021/12/11 05:23:56;;;;;;;5.97;4.60;;;;;;;-7.11;71.22;102294.03;5093392;28;20139;-62
2021/12/11 05:26:23;;;;;;;6.20;4.90;;;;;;;-6.81;71.23;102345.56;5093171;28;20147;-64
2021/12/11 05:28:51;;;;;;;5.15;4.00;;;;;;;-6.76;71.63;102337.72;5093167;28;20093;-64
2021/12/11 05:31:17;;;;;;;8.02;4.70;;;;;;;-6.94;71.29;102312.84;5093409;28;20075;-67
2021/12/11 05:33:44;;;;;;;7.80;4.07;;;;;;;-6.79;71.47;102348.97;5075525;28;20063;-68
2021/12/11 05:36:13;;;;;;;6.03;4.22;;;;;;;-6.89;71.38;102319.72;5102860;28;20028;-71
2021/12/11 05:38:39;;;;;;;6.63;5.43;;;;;;;-6.80;70.99;102329.13;5113830;28;20562;-69
2021/12/11 05:41:09;;;;;;;5.65;4.93;;;;;;;-6.81;70.61;102327.41;5113276;28;20038;-63
2021/12/11 05:43:35;;;;;;;5.95;5.35;;;;;;;-6.89;70.60;102337.84;5113573;28;20068;-65
2021/12/11 05:46:01;;;;;;;6.50;4.28;;;;;;;-6.81;70.64;102339.50;5114282;28;20085;-67
2021/12/11 05:48:28;;;;;;;6.50;5.13;;;;;;;-6.89;71.28;102332.69;5113948;28;20036;-68
2021/12/11 05:50:57;;;;;;;7.95;5.50;;;;;;;-6.96;70.79;102328.41;5113561;28;20035;-67
2021/12/11 05:53:24;;;;;;;10.87;6.27;;;;;;;-7.00;71.04;102326.72;5113221;28;20053;-74
2021/12/11 05:55:52;;;;;;;9.95;7.28;;;;;;;-7.08;71.13;102310.38;5113402;28;20490;-72
2021/12/11 06:01:23;;;;;;;5.13;4.63;;;;;;;-7.00;70.99;102333.63;5113304;28;20390;-71
2021/12/11 06:03:50;;;;;;;6.90;4.13;;;;;;;-6.98;70.76;102331.88;5109775;28;20032;-70
2021/12/11 06:06:16;;;;;;;6.15;5.32;;;;;;;-7.04;71.25;102329.34;5095118;28;20122;-70
2021/12/11 06:08:42;;;;;;;6.93;4.90;;;;;;;-7.00;70.95;102344.84;5113402;28;20448;-69
2021/12/11 06:11:11;;;;;;;5.60;4.47;;;;;;;-7.01;70.72;102337.09;5078095;28;20027;-69
2021/12/11 06:13:39;;;;;;;8.40;4.88;;;;;;;-7.00;71.55;102349.16;5113095;28;20047;-70
2021/12/11 06:16:05;;;;;;;6.53;4.77;;;;;;;-7.11;70.81;102336.31;5092301;28;20359;-70
2021/12/11 06:18:31;;;;;;;4.97;4.57;;;;;;;-7.10;71.08;102348.38;5112646;28;20032;-70
2021/12/11 06:20:58;;;;;;;6.68;5.30;;;;;;;-7.07;71.79;102350.94;5112408;28;20546;-68
2021/12/11 06:23:24;;;;;;;5.88;5.10;;;;;;;-7.00;71.25;102351.75;5112580;28;20044;-69
2021/12/11 06:25:52;;;;;;;5.95;4.32;;;;;;;-7.12;71.42;102337.19;5094250;28;20043;-67
2021/12/11 06:28:18;;;;;;;8.05;4.78;;;;;;;-7.14;71.84;102331.16;5112357;28;20032;-71
2021/12/11 06:30:44;;;;;;;6.57;4.53;;;;;;;-6.92;71.16;102352.56;5112293;28;20032;-66
2021/12/11 06:33:11;;;;;;;7.35;5.35;;;;;;;-7.09;71.95;102324.19;5111992;28;20036;-63
2021/12/11 06:35:54;;;;;;;8.25;6.18;;;;;;;-6.98;71.44;102343.09;5112657;28;20118;-67
2021/12/11 06:38:25;;;;;;;6.47;5.03;;;;;;;-7.10;71.54;102326.81;5112627;28;20130;-65
2021/12/11 06:40:51;;;;;;;6.35;5.50;;;;;;;-6.95;71.41;102347.38;5092124;28;20379;-68
2021/12/11 06:43:17;;;;;;;6.68;5.35;;;;;;;-6.91;71.92;102349.97;5091720;28;20092;-66
2021/12/11 06:45:43;;;;;;;6.63;5.25;;;;;;;-6.89;72.35;102342.19;5092142;28;20024;-65
2021/12/11 06:48:09;;;;;;;5.78;5.10;;;;;;;-6.96;71.73;102335.31;5092166;28;20035;-64
2021/12/11 06:50:35;;;;;;;5.97;5.43;;;;;;;-6.81;72.04;102348.13;5074063;28;20479;-68
2021/12/11 06:53:08;;;;;;;6.78;5.30;;;;;;;-6.80;71.40;102352.44;5072919;28;20042;-67
2021/12/11 06:55:34;;;;;;;7.80;6.13;;;;;;;-6.82;72.26;102341.25;5092071;28;20036;-63
2021/12/11 06:57:59;;;;;;;7.60;6.00;;;;;;;-6.79;71.82;102343.81;5091887;28;20410;-65
2021/12/11 07:00:26;;;;;;;5.63;5.03;;;;;;;-6.80;71.61;102331.72;5091940;28;20036;-64
2021/12/11 07:02:52;;;;;;;7.78;5.82;;;;;;;-6.72;72.20;102329.91;5091655;28;20183;-64
2021/12/11 07:05:17;;;;;;;9.03;5.57;;;;;;;-6.66;71.35;102334.16;5091929;28;20039;-67
2021/12/11 07:07:43;;;;;;;14.53;7.00;;;;;;;-6.73;71.27;102323.00;5092216;28;20115;-69
2021/12/11 07:10:13;;;;;;;7.10;5.47;;;;;;;-6.67;71.60;102328.13;5073612;28;20036;-62
2021/12/11 07:12:39;;;;;;;7.15;6.38;;;;;;;-6.62;71.43;102323.78;5073710;28;20042;-69
2021/12/11 07:15:29;;;;;;;8.75;6.50;;;;;;;-6.62;71.99;102305.66;5092568;28;20051;-64
2021/12/11 07:17:55;;;;;;;6.75;4.97;;;;;;;-6.56;72.44;102322.84;5092066;28;20051;-68
2021/12/11 07:20:21;;;;;;;6.97;5.15;;;;;;;-6.49;72.41;102326.25;5092188;28;20517;-68
2021/12/11 07:22:47;;;;;;;10.47;5.87;;;;;;;-6.48;71.29;102320.19;5092092;28;20060;-72
2021/12/11 07:25:28;;;;;;;8.23;5.25;;;;;;;-6.44;71.55;102340.88;5073733;28;20040;-65
2021/12/11 07:27:56;;;;;;;5.40;4.53;;;;;;;-6.56;71.99;102318.53;5092233;28;20040;-67
2021/12/11 07:30:49;;;;;;;6.18;5.40;;;;;;;-6.39;71.89;102327.84;5091539;28;20044;-70
2021/12/11 07:33:16;;;;;;;8.70;5.28;;;;;;;-6.37;72.09;102324.34;5053111;28;20109;-66
2021/12/11 07:35:43;;;;;;;9.30;5.75;;;;;;;-6.38;72.16;102325.25;5091703;28;20050;-65
2021/12/11 07:38:10;;;;;;;6.47;5.55;;;;;;;-6.39;71.86;102301.91;5091867;28;20055;-74
2021/12/11 07:40:41;;;;;;;7.80;6.22;;;;;;;-6.11;72.62;102349.13;5073754;28;20049;-63
2021/12/11 07:43:07;;;;;;;7.97;5.97;;;;;;;-6.10;71.93;102348.25;5091759;28;20036;-66
2021/12/11 07:45:33;;;;;;;8.45;6.55;;;;;;;-6.30;72.33;102330.34;5073683;28;20042;-70
2021/12/11 07:47:59;;;;;;;7.85;7.05;;;;;;;-6.13;72.88;102349.16;5073707;28;20074;-70
2021/12/11 07:50:25;;;;;;;6.30;5.43;;;;;;;-6.02;73.05;102352.50;5073713;28;20399;-67
2021/12/11 07:52:51;;;;;;;7.28;5.75;;;;;;;-5.94;72.44;102358.44;5073454;28;20138;-68
2021/12/11 07:55:17;;;;;;;6.90;4.90;;;;;;;-5.90;72.80;102350.63;5091444;28;20036;-62
2021/12/11 07:57:43;;;;;;;6.57;4.68;;;;;;;-5.96;72.68;102329.06;5091174;28;20461;-64
2021/12/11 08:00:12;;;;;;;6.60;4.95;;;;;;;-5.76;72.34;102346.09;5091229;28;20123;-62
2021/12/11 08:02:38;;;;;;;;;;;;;;;-5.74;71.99;102349.53;5091617;28;20152;-65
2021/12/11 08:05:04;;;;;;;8.33;7.00;;;;;;;-5.80;72.36;102334.88;5076281;28;20406;-66
2021/12/11 08:07:30;;;;;;;7.47;5.32;;;;;;;-5.88;71.72;102323.75;5077435;28;20042;-66
2021/12/11 08:09:56;;;;;;;7.03;5.60;;;;;;;-5.86;72.36;102339.28;5095437;28;20040;-68
2021/12/11 08:12:22;;;;;;;6.67;5.30;;;;;;;-5.83;72.21;102336.66;5095584;28;20110;-64
2021/12/11 08:14:49;;;;;;;7.80;5.25;;;;;;;-5.86;71.68;102336.69;5094590;28;20036;-70
2021/12/11 08:17:40;;;;;;;6.95;5.82;;;;;;;-6.22;72.80;102289.63;5095158;28;20104;-71
2021/12/11 08:20:08;;;;;;;7.32;5.35;;;;;;;-6.00;72.17;102330.00;5077224;28;20036;-69
2021/12/11 08:22:41;;;;;;;6.05;5.45;;;;;;;-6.00;72.51;102313.56;5076487;28;20064;-69
2021/12/11 08:25:07;;;;;;;7.10;5.38;;;;;;;-5.85;72.82;102328.03;5076853;28;20470;-71
2021/12/11 08:27:33;;;;;;;7.93;5.95;;;;;;;-5.78;72.41;102334.84;5094091;28;20036;-68
2021/12/11 08:29:59;;;;;;;7.80;5.47;;;;;;;-5.77;72.54;102328.81;5094030;28;20461;-68
2021/12/11 08:32:25;;;;;;;7.53;6.47;;;;;;;-5.68;72.04;102345.13;5093890;28;20024;-66
2021/12/11 08:34:52;;;;;;;7.30;5.80;;;;;;;-5.69;72.30;102332.16;5075658;28;20036;-68
2021/12/11 08:37:21;;;;;;;6.90;6.00;;;;;;;-5.70;72.36;102331.31;5093806;28;20040;-70
2021/12/11 08:39:48;;;;;;;9.77;5.60;;;;;;;-5.65;71.61;102333.81;5093615;28;20185;-68
2021/12/11 08:42:19;;;;;;;7.70;5.72;;;;;;;-5.55;72.09;102329.34;5093662;28;20048;-66
2021/12/11 08:44:52;;;;;;;10.82;6.18;;;;;;;-5.61;72.23;102319.91;5094606;28;20032;-66
2021/12/11 08:47:21;;;;;;;7.30;6.10;;;;;;;-5.57;72.02;102334.56;5094426;28;20060;-68
2021/12/11 08:49:50;;;;;;;8.27;5.45;;;;;;;-5.61;72.60;102332.91;5076330;28;20039;-67
2021/12/11 08:52:24;;;;;;;9.32;5.53;;;;;;;-5.51;72.40;102352.66;5094112;28;20554;-68
2021/12/11 08:55:39;;;;;;;10.05;6.28;;;;;;;-5.58;72.02;102338.03;5094279;28;20555;-70
2021/12/11 08:58:13;;;;;;;7.53;5.40;;;;;;;-5.67;73.45;102335.59;5084684;28;20486;-69
2021/12/11 09:00:56;;;;;;;8.60;5.60;;;;;;;-5.63;73.01;102345.03;5093517;28;20073;-65
2021/12/11 09:03:43;;;;;;;7.22;5.60;;;;;;;-5.54;73.28;102334.53;5092944;28;20048;-68
2021/12/11 09:06:17;;;;;;;10.05;6.65;;;;;;;-5.56;73.14;102317.25;5092742;28;20089;-64
2021/12/11 09:08:58;;;;;;;6.97;5.20;;;;;;;-5.58;72.53;102314.69;5056943;28;20028;-67
2021/12/11 09:11:35;;;;;;;6.57;5.00;;;;;;;-5.61;73.00;102318.19;5074075;28;20564;-63
2021/12/11 09:14:25;;;;;;;6.70;5.78;;;;;;;-5.58;73.19;102335.44;5092667;28;20042;-64
2021/12/11 09:16:51;;;;;;;8.60;6.18;;;;;;;-5.61;73.07;102335.50;5092472;28;20471;-65
2021/12/11 09:19:22;;;;;;;7.25;5.72;;;;;;;-5.62;73.36;102315.63;5074774;28;20048;-62
2021/12/11 09:22:05;;;;;;;7.68;5.55;;;;;;;-5.45;73.41;102323.16;5093210;28;20121;-68
2021/12/11 09:24:37;;;;;;;6.65;5.65;;;;;;;-5.54;73.21;102303.38;5094153;28;20040;-62
2021/12/11 09:27:05;;;;;;;8.85;6.45;;;;;;;-5.40;73.37;102326.56;5094041;28;20043;-65
2021/12/11 09:29:39;;;;;;;14.63;7.53;;;;;;;-5.33;73.28;102320.38;5094399;28;20103;-64
2021/12/11 09:32:34;;;;;;;8.38;6.05;;;;;;;-5.38;72.54;102312.66;5093519;28;20437;-65
2021/12/11 09:35:10;;;;;;;10.45;6.28;;;;;;;-5.32;72.96;102320.34;5089896;28;20050;-62
2021/12/11 09:37:38;;;;;;;6.10;5.25;;;;;;;-5.30;73.35;102320.31;5075910;28;20513;-62
2021/12/11 09:40:10;;;;;;;7.82;6.00;;;;;;;-5.26;72.89;102326.31;5099322;28;20126;-64
2021/12/11 09:42:36;;;;;;;10.07;5.55;;;;;;;-5.28;73.45;102323.75;5114248;28;20089;-62
2021/12/11 09:45:08;;;;;;;7.67;5.77;;;;;;;-5.35;73.18;102307.41;5113539;28;20059;-62
2021/12/11 09:47:41;;;;;;;6.93;5.43;;;;;;;-5.31;73.21;102303.88;5114190;28;20054;-64
2021/12/11 09:50:14;;;;;;;8.27;6.38;;;;;;;-5.32;73.26;102302.16;5114208;28;20039;-65
2021/12/11 09:52:43;;;;;;;7.97;5.15;;;;;;;-5.17;72.75;102310.63;5114446;28;20115;-63
2021/12/11 09:55:21;;;;;;;21.27;7.82;;;;;;;-5.07;73.30;102328.63;5114077;28;20043;-66
2021/12/11 09:57:52;;;;;;;7.97;6.35;;;;;;;-5.11;72.75;102307.91;5113782;28;20113;-64
2021/12/11 10:00:25;;;;;;;7.13;5.43;;;;;;;-5.29;72.49;102280.50;5095264;28;20031;-63
2021/12/11 10:02:51;;;;;;;8.63;5.97;;;;;;;-5.18;72.67;102319.28;5113274;28;20058;-63
2021/12/11 10:05:30;;;;;;;11.80;7.10;;;;;;;-5.17;73.10;102321.88;5113340;28;20474;-67
2021/12/11 10:11:04;;;;;;;9.20;6.47;;;;;;;-5.07;73.34;102309.56;5113238;28;20070;-66
2021/12/11 10:13:31;;;;;;;8.50;5.82;;;;;;;-5.08;72.39;102318.25;5094993;28;20040;-67
2021/12/11 10:15:57;;;;;;;8.82;6.40;;;;;;;-5.13;72.80;102299.28;5112801;28;20043;-62
2021/12/11 10:18:26;;;;;;;7.30;6.47;;;;;;;-5.34;72.90;102288.34;5113253;28;20039;-65
2021/12/11 10:21:08;;;;;;;8.35;6.07;;;;;;;-5.27;72.63;102304.69;5112621;28;20317;-63
2021/12/11 10:23:37;;;;;;;7.13;5.72;;;;;;;-5.39;73.39;102291.91;5112837;28;20057;-63
2021/12/11 10:26:10;;;;;;;6.38;5.45;;;;;;;-5.48;74.24;102259.19;5094120;28;20048;-66
2021/12/11 10:28:38;;;;;;;13.38;7.20;;;;;;;-5.15;74.13;102324.44;5112566;28;20508;-65
2021/12/11 10:31:13;;;;;;;7.93;5.57;;;;;;;-5.13;75.37;102320.06;5112919;28;20123;-67
2021/12/11 10:33:39;;;;;;;9.10;6.55;;;;;;;-5.24;75.62;102307.25;5112670;28;20088;-64
2021/12/11 10:36:10;;;;;;;8.73;6.97;;;;;;;-5.13;75.35;102320.06;5112710;28;20042;-65
2021/12/11 10:38:37;;;;;;;10.20;6.50;;;;;;;-5.12;75.78;102316.59;5112703;28;20031;-61
2021/12/11 10:41:06;;;;;;;10.48;6.88;;;;;;;-5.08;76.19;102320.84;5112457;28;20039;-62
2021/12/11 10:43:37;;;;;;;8.65;6.40;;;;;;;-5.09;76.07;102317.41;5094674;28;20360;-66
2021/12/11 10:46:05;;;;;;;8.75;6.75;;;;;;;-5.31;75.72;102282.25;5112582;28;20096;-67
2021/12/11 10:48:34;;;;;;;7.93;5.38;;;;;;;-5.06;75.13;102316.50;5094095;28;20036;-66
2021/12/11 10:51:10;;;;;;;7.30;5.18;;;;;;;-5.08;74.63;102302.66;5112412;28;20032;-64
2021/12/11 10:53:37;;;;;;;7.40;5.75;;;;;;;-5.13;74.81;102312.28;5112225;28;20039;-63
2021/12/11 10:56:06;;;;;;;8.25;6.03;;;;;;;-5.11;75.36;102308.78;5112098;28;20031;-62
2021/12/11 10:58:38;;;;;;;8.90;6.15;;;;;;;-5.15;75.13;102319.25;5112230;28;20071;-65
2021/12/11 11:01:10;;;;;;;10.05;7.18;;;;;;;-5.14;75.46;102324.41;5112180;28;20122;-65
2021/12/11 11:03:39;;;;;;;11.77;7.88;;;;;;;-5.16;76.19;102312.34;5093670;28;20036;-64
2021/12/11 11:06:05;;;;;;;9.07;6.00;;;;;;;-5.16;75.94;102322.72;5112506;28;20058;-62
2021/12/11 11:08:31;;;;;;;10.82;6.72;;;;;;;-5.07;76.27;102319.97;5112176;28;20039;-62
2021/12/11 11:11:04;;;;;;;8.55;6.28;;;;;;;-5.21;75.86;102299.41;5112171;28;20035;-64
2021/12/11 11:13:30;;;;;;;8.73;6.43;;;;;;;-5.12;76.31;102304.47;5094099;28;20043;-64
2021/12/11 11:15:56;;;;;;;7.45;6.40;;;;;;;-5.09;75.97;102307.00;5093906;28;20042;-67
2021/12/11 11:18:25;;;;;;;11.63;8.32;;;;;;;-5.20;76.31;102279.50;5112061;28;20051;-66
2021/12/11 11:20:59;;;;;;;14.13;6.70;;;;;;;-5.07;75.89;102307.84;5112149;28;20154;-63
2021/12/11 11:23:55;;;;;;;8.80;7.20;;;;;;;-5.10;75.91;102315.69;5111388;28;20121;-63
2021/12/11 11:27:05;;;;;;;9.02;6.93;;;;;;;-5.19;76.64;102307.19;5091792;28;20047;-68
2021/12/11 11:29:43;;;;;;;8.35;6.75;;;;;;;-5.59;76.02;102235.09;5092279;28;20035;-67
2021/12/11 11:32:14;;;;;;;;;;;;;;;-5.18;76.34;102306.31;5111417;28;20039;-65
2021/12/11 11:34:43;;;;;;;10.25;6.68;;;;;;;-5.21;75.93;102308.94;5092885;28;20271;-68
2021/12/11 11:37:15;;;;;;;12.43;6.50;;;;;;;-5.19;76.03;102317.59;5112390;28;20508;-63
2021/12/11 11:39:41;;;;;;;11.20;6.75;;;;;;;-5.25;76.14;102309.84;5096840;28;20039;-64
2021/12/11 11:42:15;;;;;;;15.10;6.20;;;;;;;-5.16;75.88;102320.13;5115840;28;20391;-67
2021/12/11 11:44:45;;;;;;;9.88;7.63;;;;;;;-5.20;76.13;102326.25;5116505;28;20126;-71
2021/12/11 11:47:13;;;;;;;10.50;7.68;;;;;;;-5.30;76.17;102305.59;5116195;28;20036;-70
2021/12/11 11:49:39;;;;;;;7.53;6.72;;;;;;;-5.15;76.84;102324.44;5116377;28;20115;-74
2021/12/11 11:52:09;;;;;;;8.20;6.18;;;;;;;-5.12;75.94;102324.38;5115616;28;20083;-70
2021/12/11 11:54:38;;;;;;;10.35;6.38;;;;;;;-5.36;76.58;102302.25;5115942;28;20031;-63
2021/12/11 11:57:21;;;;;;;8.40;6.22;;;;;;;-5.22;76.50;102339.25;5114809;28;20031;-65
2021/12/11 11:59:50;;;;;;;7.38;6.30;;;;;;;-5.31;76.35;102329.84;5115154;28;20031;-63
2021/12/11 12:02:17;;;;;;;;;;;;;;;-5.27;76.18;102322.00;5097301;28;20040;-65
2021/12/11 12:04:46;;;;;;;8.88;6.60;;;;;;;-5.27;76.80;102330.66;5115349;28;20132;-65